Time;durP1;ratioP1;P1;durP2;ratioP2;P2;SDS_P1;SDS_P2;PMS_P1;PMS_P2;Temp;Humidity;BMP_temperature;BMP_pressure;BME280_temperature;BME280_humidity;BME280_pressure;Samples;Min_cycle;Max_cycle;Signal;HPM_P1;HPM_P2
2023/12/16 00:03:48;;;;;;;96.10;42.73;;;;;;;;;;10285785;28;20395;-80
2023/12/16 00:08:49;;;;;;;98.43;45.83;;;;;;;;;;10289347;28;20478;-79
2023/12/16 00:13:50;;;;;;;95.27;45.40;;;;;;;;;;10305659;28;20065;-80
2023/12/16 00:18:51;;;;;;;96.20;44.23;;;;;;;;;;10291670;28;20125;-79
2023/12/16 00:23:52;;;;;;;86.40;43.00;;;;;;;;;;10292022;28;20038;-80
2023/12/16 00:28:54;;;;;;;95.63;41.57;;;;;;;;;;10284926;28;20042;-79
2023/12/16 00:33:55;;;;;;;110.10;45.30;;;;;;;;;;10292993;28;20161;-80
2023/12/16 00:38:56;;;;;;;99.70;44.33;;;;;;;;;;10286428;28;20086;-79
2023/12/16 00:43:57;;;;;;;103.00;45.13;;;;;;;;;;10285288;28;20066;-79
2023/12/16 00:48:58;;;;;;;97.20;44.60;;;;;;;;;;10284526;28;20031;-81
2023/12/16 00:53:59;;;;;;;92.73;42.73;;;;;;;;;;10286091;28;20479;-80
2023/12/16 00:59:01;;;;;;;90.60;41.53;;;;;;;;;;10291745;28;20121;-79
2023/12/16 01:04:02;;;;;;;86.10;39.80;;;;;;;;;;10298208;28;20034;-80
2023/12/16 01:09:03;;;;;;;80.83;39.03;;;;;;;;;;10290939;28;20026;-79
2023/12/16 01:14:04;;;;;;;79.43;39.10;;;;;;;;;;10291980;28;20118;-79
2023/12/16 01:19:05;;;;;;;81.50;38.37;;;;;;;;;;10298322;28;20039;-81
2023/12/16 01:24:06;;;;;;;87.37;39.40;;;;;;;;;;10298856;28;20147;-79
2023/12/16 01:29:07;;;;;;;79.63;41.17;;;;;;;;;;10303919;28;20062;-81
2023/12/16 01:34:09;;;;;;;78.77;39.97;;;;;;;;;;10309078;28;20161;-80
2023/12/16 01:39:10;;;;;;;80.07;40.87;;;;;;;;;;10292769;28;20023;-79
2023/12/16 01:44:11;;;;;;;82.17;41.47;;;;;;;;;;10290902;28;20110;-79
2023/12/16 01:49:12;;;;;;;80.27;39.90;;;;;;;;;;10291339;28;20121;-79
2023/12/16 01:54:13;;;;;;;79.47;42.27;;;;;;;;;;10294877;28;20042;-80
2023/12/16 01:59:14;;;;;;;77.13;39.20;;;;;;;;;;10299258;28;20198;-80
2023/12/16 02:04:16;;;;;;;81.73;38.70;;;;;;;;;;10294399;28;20122;-79
2023/12/16 02:09:24;;;;;;;76.50;40.17;;;;;;;;;;10292554;28;20395;-79
2023/12/16 02:14:32;;;;;;;83.07;40.63;;;;;;;;;;10294394;28;20049;-80
2023/12/16 02:19:33;;;;;;;74.47;37.60;;;;;;;;;;10295533;28;20037;-80
2023/12/16 02:24:36;;;;;;;79.17;39.67;;;;;;;;;;10291414;28;20061;-81
2023/12/16 02:29:37;;;;;;;69.20;36.73;;;;;;;;;;10290652;28;20102;-79
2023/12/16 02:34:38;;;;;;;70.17;33.77;;;;;;;;;;10299488;28;20137;-80
2023/12/16 02:39:39;;;;;;;70.90;34.63;;;;;;;;;;10271576;28;20565;-80
2023/12/16 02:44:41;;;;;;;62.27;31.10;;;;;;;;;;10289735;28;20105;-80
2023/12/16 02:49:42;;;;;;;64.17;32.33;;;;;;;;;;10294823;28;20035;-79
2023/12/16 02:54:43;;;;;;;60.23;29.97;;;;;;;;;;10289534;28;20075;-79
2023/12/16 02:59:44;;;;;;;55.20;27.53;;;;;;;;;;10296492;28;20169;-81
2023/12/16 03:04:45;;;;;;;61.87;28.80;;;;;;;;;;10296171;28;20038;-79
2023/12/16 03:09:46;;;;;;;56.00;26.40;;;;;;;;;;10289043;28;20126;-79
2023/12/16 03:14:47;;;;;;;53.50;24.43;;;;;;;;;;10277630;28;20054;-79
2023/12/16 03:19:48;;;;;;;50.93;23.93;;;;;;;;;;10297013;28;20065;-80
2023/12/16 03:24:51;;;;;;;48.40;24.00;;;;;;;;;;10287091;28;20749;-80
2023/12/16 03:29:52;;;;;;;48.43;23.40;;;;;;;;;;10288526;28;20034;-80
2023/12/16 03:34:53;;;;;;;48.87;24.23;;;;;;;;;;10286978;28;20051;-78
2023/12/16 03:39:54;;;;;;;53.03;24.37;;;;;;;;;;10286442;28;20042;-80
2023/12/16 03:44:55;;;;;;;48.20;23.20;;;;;;;;;;10286864;28;20398;-79
2023/12/16 03:49:56;;;;;;;53.73;23.97;;;;;;;;;;10285789;28;20050;-79
2023/12/16 03:54:57;;;;;;;55.77;25.03;;;;;;;;;;10288682;28;20039;-81
2023/12/16 03:59:58;;;;;;;48.50;23.30;;;;;;;;;;10286238;28;20125;-80
2023/12/16 04:04:59;;;;;;;48.67;24.53;;;;;;;;;;10274670;28;20129;-81
2023/12/16 04:10:00;;;;;;;50.30;25.97;;;;;;;;;;10273986;28;20122;-80
2023/12/16 04:15:01;;;;;;;55.33;27.10;;;;;;;;;;10284496;28;20070;-79
2023/12/16 04:20:02;;;;;;;51.20;25.97;;;;;;;;;;10292265;28;20058;-79
2023/12/16 04:25:10;;;;;;;49.37;26.30;;;;;;;;;;10287750;28;20459;-80
2023/12/16 04:30:11;;;;;;;54.57;27.90;;;;;;;;;;10283568;28;20041;-79
2023/12/16 04:35:12;;;;;;;55.93;26.20;;;;;;;;;;10292406;28;20080;-80
2023/12/16 04:40:13;;;;;;;67.70;35.43;;;;;;;;;;10283743;28;20122;-79
2023/12/16 04:45:14;;;;;;;71.57;32.67;;;;;;;;;;10289871;28;20162;-80
2023/12/16 04:50:17;;;;;;;56.00;30.17;;;;;;;;;;10294434;28;20046;-80
2023/12/16 04:55:18;;;;;;;60.47;30.67;;;;;;;;;;10289338;28;20041;-80
2023/12/16 05:00:19;;;;;;;56.40;27.13;;;;;;;;;;10289914;28;20110;-79
2023/12/16 05:05:20;;;;;;;52.97;27.07;;;;;;;;;;10300022;28;20074;-79
2023/12/16 05:10:22;;;;;;;53.00;24.53;;;;;;;;;;10304175;28;20043;-80
2023/12/16 05:15:30;;;;;;;58.07;27.83;;;;;;;;;;10291020;28;20116;-80
2023/12/16 05:20:31;;;;;;;49.83;24.70;;;;;;;;;;10289424;28;20054;-80
2023/12/16 05:25:32;;;;;;;51.50;25.87;;;;;;;;;;10281292;28;20114;-79
2023/12/16 05:30:33;;;;;;;52.47;25.63;;;;;;;;;;10303079;28;20073;-82
2023/12/16 05:35:34;;;;;;;51.27;24.60;;;;;;;;;;10284364;28;20210;-80
2023/12/16 05:40:35;;;;;;;52.73;23.87;;;;;;;;;;10281719;28;20117;-79
2023/12/16 05:45:36;;;;;;;49.53;23.47;;;;;;;;;;10295787;28;20034;-80
2023/12/16 05:50:37;;;;;;;44.00;22.87;;;;;;;;;;10291804;28;20042;-79
2023/12/16 05:55:39;;;;;;;51.13;24.03;;;;;;;;;;10295194;28;20064;-80
2023/12/16 06:00:40;;;;;;;46.20;24.77;;;;;;;;;;10298054;28;20025;-81
2023/12/16 06:05:41;;;;;;;51.77;25.43;;;;;;;;;;10296199;28;20034;-80
2023/12/16 06:10:42;;;;;;;50.33;24.77;;;;;;;;;;10295860;28;20038;-80
2023/12/16 06:15:43;;;;;;;55.20;26.53;;;;;;;;;;10288483;28;20113;-82
2023/12/16 06:20:44;;;;;;;57.93;27.53;;;;;;;;;;10291715;28;20126;-80
2023/12/16 06:25:45;;;;;;;55.57;26.43;;;;;;;;;;10289287;28;20042;-79
2023/12/16 06:30:46;;;;;;;53.37;26.23;;;;;;;;;;10290406;28;20387;-79
2023/12/16 06:35:47;;;;;;;54.70;28.33;;;;;;;;;;10288959;28;20141;-82
2023/12/16 06:40:48;;;;;;;62.17;30.00;;;;;;;;;;10295593;28;20026;-80
2023/12/16 06:45:49;;;;;;;57.37;28.70;;;;;;;;;;10298860;28;20038;-80
2023/12/16 06:50:50;;;;;;;65.90;33.30;;;;;;;;;;10289854;28;20042;-81
2023/12/16 06:55:53;;;;;;;59.10;29.57;;;;;;;;;;10305106;28;20022;-80
2023/12/16 07:00:54;;;;;;;66.13;30.73;;;;;;;;;;10284583;28;20754;-79
2023/12/16 07:05:58;;;;;;;66.00;32.13;;;;;;;;;;10297207;28;20173;-82
2023/12/16 07:10:59;;;;;;;64.40;31.97;;;;;;;;;;10292742;28;20465;-81
2023/12/16 07:16:04;;;;;;;71.40;34.30;;;;;;;;;;10295854;28;20117;-81
2023/12/16 07:21:06;;;;;;;70.03;32.85;;;;;;;;;;10303911;28;20120;-82
2023/12/16 07:26:07;;;;;;;64.33;32.53;;;;;;;;;;10290545;28;20038;-81
2023/12/16 07:31:08;;;;;;;62.67;31.83;;;;;;;;;;10294821;28;20038;-82
2023/12/16 07:36:10;;;;;;;62.17;31.03;;;;;;;;;;10289947;28;20166;-82
2023/12/16 07:41:12;;;;;;;63.27;32.40;;;;;;;;;;10284241;28;20149;-82
2023/12/16 07:46:13;;;;;;;86.80;43.80;;;;;;;;;;10285557;28;20074;-82
2023/12/16 07:51:24;;;;;;;97.10;49.47;;;;;;;;;;10281364;28;20054;-81
2023/12/16 07:56:27;;;;;;;100.03;48.20;;;;;;;;;;10281283;28;20109;-82
2023/12/16 08:01:34;;;;;;;101.50;56.77;;;;;;;;;;10283866;28;20106;-82
2023/12/16 08:06:37;;;;;;;78.73;39.03;;;;;;;;;;10285202;28;20066;-81
2023/12/16 08:11:38;;;;;;;72.90;36.40;;;;;;;;;;10286656;28;20113;-81
2023/12/16 08:16:40;;;;;;;76.30;36.27;;;;;;;;;;10284120;28;20031;-82
2023/12/16 08:21:41;;;;;;;78.47;36.57;;;;;;;;;;10278251;28;20367;-81
2023/12/16 08:26:42;;;;;;;62.73;31.00;;;;;;;;;;10259961;28;20495;-81
2023/12/16 08:31:45;;;;;;;58.73;30.90;;;;;;;;;;10299434;28;20081;-82
2023/12/16 08:36:48;;;;;;;59.37;30.37;;;;;;;;;;10293354;28;20446;-82
2023/12/16 08:41:49;;;;;;;88.23;41.63;;;;;;;;;;10300513;28;20051;-83
2023/12/16 08:46:50;;;;;;;72.70;35.07;;;;;;;;;;10288093;28;20158;-83
2023/12/16 08:51:53;;;;;;;74.70;35.27;;;;;;;;;;10285409;28;20138;-81
2023/12/16 08:56:55;;;;;;;63.67;31.20;;;;;;;;;;10289339;28;20046;-80
2023/12/16 09:02:05;;;;;;;62.10;31.00;;;;;;;;;;10294684;28;20042;-81
2023/12/16 09:07:06;;;;;;;61.03;31.83;;;;;;;;;;10286229;28;20035;-78
2023/12/16 09:12:07;;;;;;;65.00;33.07;;;;;;;;;;10290040;28;20125;-79
2023/12/16 09:17:08;;;;;;;57.10;30.30;;;;;;;;;;10283480;28;20069;-82
2023/12/16 09:22:10;;;;;;;61.70;29.53;;;;;;;;;;10280938;28;20038;-80
2023/12/16 09:27:11;;;;;;;63.10;31.07;;;;;;;;;;10293715;28;20034;-80
2023/12/16 09:32:12;;;;;;;61.47;31.30;;;;;;;;;;10275758;28;20830;-82
2023/12/16 09:37:14;;;;;;;57.27;28.77;;;;;;;;;;10302098;28;20063;-80
2023/12/16 09:42:15;;;;;;;55.07;27.77;;;;;;;;;;10291423;28;20459;-81
2023/12/16 09:47:16;;;;;;;51.33;28.30;;;;;;;;;;10291953;28;20031;-78
2023/12/16 09:52:17;;;;;;;60.50;29.33;;;;;;;;;;10290324;28;20049;-78
2023/12/16 09:57:19;;;;;;;63.70;32.03;;;;;;;;;;10291003;28;20106;-78
2023/12/16 10:02:26;;;;;;;52.70;28.33;;;;;;;;;;10290424;28;20403;-79
2023/12/16 10:07:27;;;;;;;59.70;29.67;;;;;;;;;;10287644;28;20027;-79
2023/12/16 10:12:33;;;;;;;67.70;30.77;;;;;;;;;;10290645;28;20376;-77
2023/12/16 10:17:34;;;;;;;58.53;29.30;;;;;;;;;;10283942;28;20097;-78
2023/12/16 10:22:35;;;;;;;64.97;30.40;;;;;;;;;;10290238;28;20038;-77
2023/12/16 10:27:37;;;;;;;57.17;29.63;;;;;;;;;;10299229;28;20117;-78
2023/12/16 10:32:41;;;;;;;60.80;30.70;;;;;;;;;;10292242;28;20038;-80
2023/12/16 10:37:51;;;;;;;54.93;30.10;;;;;;;;;;10291328;28;20051;-80
2023/12/16 10:42:53;;;;;;;56.77;28.43;;;;;;;;;;10277450;28;20474;-80
2023/12/16 10:47:56;;;;;;;56.17;29.63;;;;;;;;;;10303235;28;20074;-80
2023/12/16 10:52:58;;;;;;;56.60;28.13;;;;;;;;;;10288107;28;20439;-78
2023/12/16 10:58:21;;;;;;;59.73;29.93;;;;;;;;;;10297740;28;20027;-79
2023/12/16 11:03:23;;;;;;;58.10;28.50;;;;;;;;;;10286479;28;20057;-79
2023/12/16 11:08:24;;;;;;;51.37;26.97;;;;;;;;;;10299132;28;20450;-81
2023/12/16 11:13:25;;;;;;;48.93;24.73;;;;;;;;;;10285451;28;20053;-79
2023/12/16 11:18:29;;;;;;;50.37;25.93;;;;;;;;;;10289462;28;20030;-80
2023/12/16 11:23:30;;;;;;;52.93;26.50;;;;;;;;;;10297421;28;20041;-81
2023/12/16 11:28:31;;;;;;;52.93;28.17;;;;;;;;;;10291753;28;20073;-76
2023/12/16 11:33:45;;;;;;;53.97;29.57;;;;;;;;;;10289140;28;20054;-76
2023/12/16 11:38:47;;;;;;;56.23;28.57;;;;;;;;;;10283137;28;20066;-76
2023/12/16 11:43:48;;;;;;;50.00;26.83;;;;;;;;;;10285662;28;20089;-78
2023/12/16 11:48:49;;;;;;;51.83;27.40;;;;;;;;;;10267805;28;20035;-79
2023/12/16 11:53:51;;;;;;;59.97;29.67;;;;;;;;;;10286136;28;20045;-76
2023/12/16 11:58:59;;;;;;;55.60;27.53;;;;;;;;;;10289493;28;20116;-76
2023/12/16 12:04:03;;;;;;;53.77;27.00;;;;;;;;;;10272108;28;20019;-81
2023/12/16 12:09:05;;;;;;;51.10;26.73;;;;;;;;;;10281295;28;20035;-79
2023/12/16 12:14:06;;;;;;;51.03;27.03;;;;;;;;;;10290252;28;20046;-78
2023/12/16 12:19:07;;;;;;;49.93;26.30;;;;;;;;;;10275338;28;20034;-80
2023/12/16 12:24:09;;;;;;;58.27;34.10;;;;;;;;;;10289200;28;20097;-79
2023/12/16 12:29:10;;;;;;;48.43;25.23;;;;;;;;;;10290310;28;20019;-79
2023/12/16 12:34:20;;;;;;;54.70;27.60;;;;;;;;;;10286755;28;20038;-78
2023/12/16 12:39:22;;;;;;;56.83;28.80;;;;;;;;;;10274560;28;20059;-80
2023/12/16 12:44:23;;;;;;;59.50;30.27;;;;;;;;;;10289694;28;20055;-78
2023/12/16 12:49:31;;;;;;;64.53;32.83;;;;;;;;;;10288375;28;20058;-77
2023/12/16 12:54:45;;;;;;;58.93;30.87;;;;;;;;;;10299095;28;20129;-77
2023/12/16 12:59:46;;;;;;;70.33;32.17;;;;;;;;;;10297485;28;20406;-79
2023/12/16 13:04:47;;;;;;;58.90;29.83;;;;;;;;;;10290516;28;20039;-79
2023/12/16 13:09:48;;;;;;;61.07;31.27;;;;;;;;;;10289562;28;20109;-79
2023/12/16 13:14:49;;;;;;;66.87;32.67;;;;;;;;;;10290929;28;20078;-79
2023/12/16 13:19:51;;;;;;;70.80;36.77;;;;;;;;;;10297344;28;20018;-80
2023/12/16 13:24:58;;;;;;;65.20;32.00;;;;;;;;;;10292733;28;20046;-81
2023/12/16 13:29:59;;;;;;;67.40;34.63;;;;;;;;;;10293923;28;20027;-82
2023/12/16 13:35:01;;;;;;;78.67;38.47;;;;;;;;;;10289699;28;20051;-80
2023/12/16 13:40:05;;;;;;;69.67;34.77;;;;;;;;;;10290997;28;20031;-80
2023/12/16 13:45:07;;;;;;;76.67;38.97;;;;;;;;;;10288675;28;20038;-81
2023/12/16 13:50:09;;;;;;;85.00;41.23;;;;;;;;;;10293466;28;20133;-80
2023/12/16 13:55:10;;;;;;;75.53;37.07;;;;;;;;;;10290257;28;20034;-80
2023/12/16 14:00:12;;;;;;;65.10;33.70;;;;;;;;;;10297138;28;20038;-81
2023/12/16 14:05:13;;;;;;;73.93;37.43;;;;;;;;;;10292961;28;20034;-81
2023/12/16 14:10:14;;;;;;;88.37;44.73;;;;;;;;;;10289248;28;20050;-80
2023/12/16 14:15:22;;;;;;;84.00;43.73;;;;;;;;;;10284361;28;20553;-81
2023/12/16 14:20:23;;;;;;;83.33;42.80;;;;;;;;;;10303243;28;20097;-80
2023/12/16 14:25:25;;;;;;;78.90;41.77;;;;;;;;;;10289489;28;20125;-80
2023/12/16 14:30:26;;;;;;;100.77;52.70;;;;;;;;;;10311088;28;20060;-80
2023/12/16 14:35:27;;;;;;;94.27;49.83;;;;;;;;;;10300891;28;21136;-81
2023/12/16 14:40:28;;;;;;;104.17;52.07;;;;;;;;;;10303473;28;20039;-80
2023/12/16 14:45:30;;;;;;;212.93;118.10;;;;;;;;;;10285643;28;20035;-80
2023/12/16 14:50:31;;;;;;;113.73;54.40;;;;;;;;;;10270178;28;20053;-80
2023/12/16 14:55:32;;;;;;;99.80;51.83;;;;;;;;;;10274627;28;20641;-80
2023/12/16 15:00:33;;;;;;;113.73;56.23;;;;;;;;;;10285212;28;20379;-80
2023/12/16 15:05:34;;;;;;;122.73;61.10;;;;;;;;;;10300088;28;20038;-80
2023/12/16 15:10:37;;;;;;;134.27;60.60;;;;;;;;;;10292507;28;20088;-81
2023/12/16 15:15:38;;;;;;;122.27;60.87;;;;;;;;;;10288491;28;20031;-83
2023/12/16 15:20:39;;;;;;;126.37;64.93;;;;;;;;;;10270914;28;20035;-81
2023/12/16 15:25:41;;;;;;;114.70;58.87;;;;;;;;;;10286809;28;20490;-82
2023/12/16 15:30:42;;;;;;;114.63;58.53;;;;;;;;;;10287474;28;20133;-81
2023/12/16 15:35:44;;;;;;;125.57;63.03;;;;;;;;;;10291735;28;20070;-81
2023/12/16 15:40:45;;;;;;;111.00;57.47;;;;;;;;;;10288557;28;20088;-81
2023/12/16 15:45:46;;;;;;;113.37;56.53;;;;;;;;;;10283006;28;20050;-81
2023/12/16 15:50:47;;;;;;;120.03;60.10;;;;;;;;;;10297638;28;20038;-81
2023/12/16 15:55:48;;;;;;;110.97;57.90;;;;;;;;;;10285987;28;20105;-82
2023/12/16 16:00:50;;;;;;;118.83;62.93;;;;;;;;;;10303903;28;20459;-80
2023/12/16 16:05:51;;;;;;;125.57;65.73;;;;;;;;;;10289078;28;20034;-81
2023/12/16 16:10:52;;;;;;;116.30;58.60;;;;;;;;;;10291954;28;20035;-81
2023/12/16 16:15:53;;;;;;;115.97;60.60;;;;;;;;;;10293011;28;20038;-81
2023/12/16 16:20:55;;;;;;;116.40;59.50;;;;;;;;;;10293711;28;20038;-80
2023/12/16 16:25:56;;;;;;;119.13;60.73;;;;;;;;;;10285630;28;20061;-80
2023/12/16 16:30:57;;;;;;;107.03;57.90;;;;;;;;;;10293605;28;20125;-82
2023/12/16 16:35:58;;;;;;;102.80;56.73;;;;;;;;;;10288958;28;20066;-81
2023/12/16 16:41:01;;;;;;;105.07;55.23;;;;;;;;;;10270630;28;20169;-81
2023/12/16 16:46:02;;;;;;;105.63;53.23;;;;;;;;;;10290301;28;20674;-80
2023/12/16 16:51:03;;;;;;;105.37;54.07;;;;;;;;;;10294318;28;20123;-82
2023/12/16 16:56:05;;;;;;;102.93;54.83;;;;;;;;;;10289799;28;20138;-81
2023/12/16 17:01:06;;;;;;;111.10;58.33;;;;;;;;;;10290015;28;20030;-80
2023/12/16 17:06:07;;;;;;;113.10;59.93;;;;;;;;;;10299754;28;20046;-79
2023/12/16 17:11:15;;;;;;;115.57;56.33;;;;;;;;;;10287263;28;20039;-80
2023/12/16 17:16:16;;;;;;;128.07;71.07;;;;;;;;;;10289616;28;20053;-80
2023/12/16 17:21:17;;;;;;;111.33;57.60;;;;;;;;;;10278995;28;20517;-80
2023/12/16 17:26:19;;;;;;;111.47;60.07;;;;;;;;;;10291295;28;20496;-80
2023/12/16 17:31:21;;;;;;;110.50;57.87;;;;;;;;;;10273179;28;20125;-81
2023/12/16 17:36:22;;;;;;;118.67;62.50;;;;;;;;;;10285812;28;20141;-80
2023/12/16 17:41:23;;;;;;;124.07;63.60;;;;;;;;;;10299557;28;20118;-80
2023/12/16 17:46:27;;;;;;;117.63;61.37;;;;;;;;;;10296843;28;20026;-80
2023/12/16 17:51:28;;;;;;;112.90;57.57;;;;;;;;;;10296285;28;20058;-80
2023/12/16 17:56:29;;;;;;;110.50;54.13;;;;;;;;;;10304292;28;20030;-80
2023/12/16 18:01:31;;;;;;;116.97;54.43;;;;;;;;;;10277863;28;20134;-80
2023/12/16 18:06:32;;;;;;;108.77;53.47;;;;;;;;;;10304882;28;20042;-80
2023/12/16 18:11:40;;;;;;;108.43;52.57;;;;;;;;;;10293742;28;20070;-80
2023/12/16 18:16:41;;;;;;;96.50;49.57;;;;;;;;;;10296272;28;20141;-79
2023/12/16 18:21:42;;;;;;;93.20;47.17;;;;;;;;;;10302160;28;20109;-79
2023/12/16 18:26:44;;;;;;;94.30;45.90;;;;;;;;;;10289631;28;20069;-81
2023/12/16 18:31:46;;;;;;;88.40;41.87;;;;;;;;;;10289569;28;20046;-80
2023/12/16 18:36:47;;;;;;;95.17;45.30;;;;;;;;;;10299342;28;20065;-79
2023/12/16 18:41:51;;;;;;;79.37;39.13;;;;;;;;;;10283658;28;20039;-80
2023/12/16 18:46:52;;;;;;;80.23;40.53;;;;;;;;;;10300770;28;20117;-80
2023/12/16 18:51:53;;;;;;;83.77;43.17;;;;;;;;;;10302254;28;20046;-81
2023/12/16 18:56:54;;;;;;;79.93;41.13;;;;;;;;;;10288798;28;20040;-82
2023/12/16 19:01:56;;;;;;;91.90;43.80;;;;;;;;;;10272136;28;20042;-80
2023/12/16 19:06:57;;;;;;;88.53;42.53;;;;;;;;;;10301710;28;20034;-82
2023/12/16 19:11:58;;;;;;;94.47;41.87;;;;;;;;;;10280967;28;20487;-80
2023/12/16 19:16:59;;;;;;;94.00;44.97;;;;;;;;;;10287097;28;20030;-81
2023/12/16 19:22:14;;;;;;;81.77;38.50;;;;;;;;;;10269825;28;20031;-81
2023/12/16 19:27:15;;;;;;;100.53;45.67;;;;;;;;;;10290851;28;20121;-81
2023/12/16 19:32:16;;;;;;;88.37;41.00;;;;;;;;;;10299055;28;20141;-79
2023/12/16 19:37:18;;;;;;;86.63;42.47;;;;;;;;;;10283818;28;20065;-80
2023/12/16 19:42:20;;;;;;;81.40;38.87;;;;;;;;;;10282767;28;20035;-82
2023/12/16 19:47:24;;;;;;;79.87;40.40;;;;;;;;;;10273077;28;20039;-80
2023/12/16 19:52:25;;;;;;;80.30;38.53;;;;;;;;;;10294240;28;20053;-81
2023/12/16 19:57:26;;;;;;;71.33;36.07;;;;;;;;;;10293059;28;20038;-80
2023/12/16 20:02:27;;;;;;;79.30;39.73;;;;;;;;;;10293264;28;20042;-80
2023/12/16 20:07:28;;;;;;;76.73;38.30;;;;;;;;;;10285770;28;20395;-81
2023/12/16 20:12:36;;;;;;;78.43;40.53;;;;;;;;;;10289144;28;20038;-79
2023/12/16 20:17:37;;;;;;;84.27;42.37;;;;;;;;;;10299962;28;20038;-78
2023/12/16 20:22:38;;;;;;;85.17;43.13;;;;;;;;;;10266937;28;20629;-79
2023/12/16 20:27:46;;;;;;;83.73;40.10;;;;;;;;;;10286546;28;20378;-79
2023/12/16 20:32:55;;;;;;;80.47;39.10;;;;;;;;;;10296500;28;20141;-79
2023/12/16 20:43:42;;;;;;;70.00;35.55;;;;;;;;;;10243030;28;20093;-80
2023/12/16 20:48:44;;;;;;;80.60;37.87;;;;;;;;;;10284679;28;20077;-78
2023/12/16 20:53:46;;;;;;;68.63;32.10;;;;;;;;;;10290466;28;20039;-79
2023/12/16 20:58:48;;;;;;;71.60;36.37;;;;;;;;;;10283160;28;20035;-80
2023/12/16 21:03:49;;;;;;;71.00;34.30;;;;;;;;;;10275353;28;20031;-80
2023/12/16 21:08:50;;;;;;;66.57;31.87;;;;;;;;;;10284659;28;20027;-79
2023/12/16 21:13:51;;;;;;;68.23;33.07;;;;;;;;;;10285825;28;20110;-81
2023/12/16 21:18:52;;;;;;;56.43;28.77;;;;;;;;;;10285217;28;20119;-81
2023/12/16 21:23:53;;;;;;;65.00;31.80;;;;;;;;;;10292667;28;20034;-78
2023/12/16 21:28:56;;;;;;;55.20;27.40;;;;;;;;;;10288022;28;20130;-79
2023/12/16 21:33:57;;;;;;;52.07;25.13;;;;;;;;;;10292666;28;20050;-80
2023/12/16 21:38:58;;;;;;;49.93;25.27;;;;;;;;;;10290628;28;20061;-78
2023/12/16 21:43:59;;;;;;;51.73;25.27;;;;;;;;;;10291005;28;20118;-79
2023/12/16 21:49:00;;;;;;;52.10;26.07;;;;;;;;;;10291395;28;20498;-79
2023/12/16 21:54:01;;;;;;;51.50;24.07;;;;;;;;;;10291271;28;20599;-78
2023/12/16 21:59:03;;;;;;;51.73;23.77;;;;;;;;;;10289741;28;20062;-79
2023/12/16 22:04:04;;;;;;;45.40;23.93;;;;;;;;;;10299497;28;20077;-79
2023/12/16 22:09:12;;;;;;;58.80;26.63;;;;;;;;;;10291255;28;20943;-80
2023/12/16 22:14:13;;;;;;;54.83;26.70;;;;;;;;;;10290608;28;20046;-82
2023/12/16 22:19:14;;;;;;;56.67;27.47;;;;;;;;;;10295413;28;20125;-81
2023/12/16 22:24:15;;;;;;;59.63;30.50;;;;;;;;;;10297960;28;20133;-80
2023/12/16 22:29:16;;;;;;;67.50;32.30;;;;;;;;;;10289718;28;20035;-80
2023/12/16 22:34:17;;;;;;;67.87;35.07;;;;;;;;;;10288009;28;20152;-79
2023/12/16 22:39:18;;;;;;;68.17;33.80;;;;;;;;;;10289237;28;20221;-79
2023/12/16 22:44:19;;;;;;;63.80;30.47;;;;;;;;;;10287950;28;20514;-80
2023/12/16 22:49:20;;;;;;;63.07;28.43;;;;;;;;;;10288109;28;20113;-81
2023/12/16 22:54:21;;;;;;;55.67;27.70;;;;;;;;;;10289210;28;20121;-79
2023/12/16 22:59:22;;;;;;;66.30;30.13;;;;;;;;;;10288047;28;20042;-79
2023/12/16 23:04:23;;;;;;;55.17;28.00;;;;;;;;;;10288833;28;20089;-79
2023/12/16 23:09:25;;;;;;;54.80;27.30;;;;;;;;;;10288919;28;20117;-80
2023/12/16 23:14:26;;;;;;;50.30;25.33;;;;;;;;;;10286914;28;20125;-80
2023/12/16 23:19:27;;;;;;;52.23;25.97;;;;;;;;;;10289608;28;20493;-80
2023/12/16 23:24:28;;;;;;;56.83;27.07;;;;;;;;;;10300888;28;20117;-81
2023/12/16 23:29:30;;;;;;;59.60;27.97;;;;;;;;;;10297252;28;20130;-79
2023/12/16 23:34:31;;;;;;;56.27;28.50;;;;;;;;;;10293991;28;20043;-80
2023/12/16 23:39:32;;;;;;;56.53;28.37;;;;;;;;;;10292708;28;20055;-79
2023/12/16 23:44:33;;;;;;;65.33;30.30;;;;;;;;;;10287664;28;20114;-79
2023/12/16 23:49:34;;;;;;;58.40;28.60;;;;;;;;;;10297810;28;20180;-79
2023/12/16 23:54:35;;;;;;;65.30;30.77;;;;;;;;;;10294650;28;20130;-80
2023/12/16 23:59:36;;;;;;;54.80;29.37;;;;;;;;;;10291996;28;20058;-79
